Latest Weather Observations for Marree Airport

IDS60801

Issued at 5:01 am CDT Tuesday 9 February 2016 (issued every 30 minutes, with the page automatically refreshed every 10 minutes)

About weather observations | Map of weather stations | Latest weather observations for SA | Other Formats
Station Details ID: 017126 Name: MARREE AERO Lat: -29.66 Lon: 138.07 Height: 50.0 m
Data from the previous 72 hours. | See also: Recent months at Marree Airport
Date/Time
CDT
Temp
°C
App
Temp
°C
Dew
Point
Rel
Hum
%
Delta-T
°C
Wind Press
QNH
hPa
Press
MSL
hPa
Rain
since 9 am
mm
Dir
 
Spd
km/h
Gust
km/h
Spd
kts
Gust
kts
09/05:00am 26.3 22.4 9.6 35 9.2 SSE 20 24 11 13 1014.0 1013.6 0.0
09/04:30am 26.4 22.3 10.1 36 9.1 SSE 22 26 12 14 1013.8 1013.4 0.0
09/04:00am 26.5 23.0 10.2 36 9.1 S 19 20 10 11 1013.7 1013.3 0.0
09/03:30am 26.0 22.9 10.2 37 8.8 SSE 17 19 9 10 1013.7 1013.3 0.0
09/03:00am 26.3 23.3 10.5 37 8.9 SSE 17 20 9 11 1013.7 1013.3 0.0
09/02:30am 27.0 24.0 10.7 36 9.2 SSE 17 19 9 10 1013.8 1013.4 0.0
09/02:00am 27.6 24.1 10.3 34 9.7 SSE 19 20 10 11 1014.0 1013.6 0.0
09/01:30am 28.5 24.7 9.7 31 10.5 S 20 26 11 14 1014.1 1013.7 0.0
09/01:00am 29.3 24.8 8.4 27 11.5 S 22 26 12 14 1014.4 1014.0 0.0
09/12:30am 30.3 25.7 8.1 25 12.2 S 22 30 12 16 1014.4 1014.0 0.0
09/12:00am 30.9 25.7 7.4 23 12.8 S 24 30 13 16 1014.6 1014.2 0.0
 
Date/Time
CDT
Temp
°C
App
Temp
°C
Dew
Point
Rel
Hum
%
Delta-T
°C
Wind Press
QNH
hPa
Press
MSL
hPa
Rain
since 9 am
mm
Dir
 
Spd
km/h
Gust
km/h
Spd
kts
Gust
kts
08/11:30pm 31.9 27.1 7.5 22 13.4 SSE 22 26 12 14 1014.7 1014.3 0.0
08/11:00pm 32.1 27.6 7.0 21 13.7 S 20 24 11 13 1014.7 1014.3 0.0
08/10:30pm 33.3 28.7 5.8 18 14.8 S 19 24 10 13 1014.6 1014.2 0.0
08/10:00pm 32.2 28.8 5.7 19 14.1 ESE 13 15 7 8 1014.3 1013.9 0.0
08/09:30pm 33.3 29.5 5.8 18 14.8 E 15 17 8 9 1013.9 1013.5 0.0
08/09:00pm 34.4 30.0 5.0 16 15.7 E 17 19 9 10 1013.7 1013.3 0.0
08/08:30pm 35.6 31.2 5.0 15 16.5 E 17 22 9 12 1013.4 1013.0 0.0
08/08:00pm 36.9 31.8 4.0 13 17.5 ESE 20 28 11 15 1013.0 1012.6 0.0
08/07:30pm 37.9 32.2 4.7 13 18.0 SE 24 28 13 15 1012.7 1012.3 0.0
08/07:00pm 38.5 32.5 5.2 13 18.2 ESE 26 33 14 18 1012.4 1012.0 0.0
08/06:30pm 38.7 33.5 5.4 13 18.3 SE 22 30 12 16 1012.4 1012.0 0.0
08/06:00pm 39.0 34.1 6.7 14 18.1 ESE 22 33 12 18 1012.4 1012.0 0.0
08/05:30pm 39.4 33.5 5.9 13 18.6 SE 26 39 14 21 1012.5 1012.1 0.0
08/05:00pm 39.7 33.5 6.1 13 18.8 SE 28 41 15 22 1012.6 1012.2 0.0
08/04:30pm 38.9 33.2 6.6 14 18.1 ESE 26 35 14 19 1013.0 1012.6 0.0
08/04:00pm 38.9 33.8 7.6 15 17.8 SE 24 37 13 20 1013.3 1012.9 0.0
08/03:30pm 39.5 34.6 7.1 14 18.3 ESE 22 32 12 17 1013.5 1013.1 0.0
08/03:00pm 39.1 34.5 5.7 13 18.5 ESE 19 28 10 15 1013.9 1013.5 0.0
08/02:30pm 39.2 34.7 6.8 14 18.2 SSE 20 41 11 22 1014.3 1013.9 0.0
08/02:00pm 39.4 34.1 7.0 14 18.3 SE 24 41 13 22 1014.6 1014.2 0.0
08/01:30pm 38.2 33.3 7.0 15 17.5 SE 22 37 12 20 1015.1 1014.7 0.0
08/01:00pm 38.1 32.8 7.0 15 17.5 SE 24 35 13 19 1015.6 1015.2 0.0
08/12:30pm 37.1 32.4 6.2 15 17.0 SE 20 33 11 18 1015.9 1015.6 0.0
08/12:00pm 37.3 32.7 8.2 17 16.6 SE 22 35 12 19 1016.2 1015.9 0.0
08/11:30am 36.7 33.0 10.1 20 15.5 SE 20 32 11 17 1016.5 1016.2 0.0
08/11:00am 35.8 31.3 10.1 21 15.0 SE 24 41 13 22 1016.7 1016.4 0.0
08/10:30am 33.9 28.4 9.2 22 14.0 SE 28 35 15 19 1016.9 1016.6 0.0
08/10:00am 32.6 26.6 10.0 25 13.0 SE 32 39 17 21 1016.9 1016.6 0.0
08/09:30am 30.9 25.3 10.3 28 11.8 SSE 30 39 16 21 1017.0 1016.7 0.0
08/09:00am 29.4 24.4 11.0 32 10.5 SSE 28 35 15 19 1016.9 1016.6 0.0
08/08:30am 28.1 23.7 11.6 36 9.5 SSE 26 32 14 17 1016.8 1016.5 0.0
08/08:00am 26.5 22.5 11.8 40 8.4 S 24 30 13 16 1016.6 1016.3 0.0
08/07:30am 25.2 21.3 12.1 44 7.5 S 24 28 13 15 1016.4 1016.1 0.0
08/07:00am 24.5 21.0 12.1 46 7.1 S 22 28 12 15 1016.1 1015.8 0.0
08/06:30am 23.8 20.8 12.1 48 6.7 S 19 22 10 12 1015.9 1015.6 0.0
08/06:00am 24.6 21.4 11.9 45 7.2 SSE 20 24 11 13 1015.5 1015.1 0.0
08/05:30am 25.2 21.9 11.7 43 7.7 S 20 24 11 13 1015.2 1014.8 0.0
08/05:00am 25.7 21.9 11.1 40 8.2 S 22 28 12 15 1014.9 1014.5 0.0
08/04:30am 25.4 21.9 10.1 38 8.5 S 19 24 10 13 1014.7 1014.3 0.0
08/04:21am 25.0 21.4 9.7 38 8.4 S 19 20 10 11 1014.7 1014.3 0.0
08/04:20am 35.8 32.6 11.4 23 14.5 S 19 20 10 11 1013.6 1013.2 0.0
08/04:00am 25.3 21.9 9.2 36 8.8 S 17 20 9 11 1014.6 1014.2 0.0
08/03:30am 23.8 20.3 7.4 35 8.6 SSE 15 17 8 9 1014.6 1014.2 0.0
08/03:00am 24.2 20.6 6.9 33 9.0 SSE 15 15 8 8 1014.6 1014.2 0.0
08/02:30am 24.8 20.7 6.1 30 9.6 SSE 17 17 9 9 1014.7 1014.3 0.0
08/02:00am 25.7 21.9 5.8 28 10.2 SSE 15 17 8 9 1014.9 1014.5 0.0
08/01:30am 27.0 22.7 5.3 25 11.2 S 17 19 9 10 1015.2 1014.8 0.0
08/01:00am 28.0 23.8 5.6 24 11.7 S 17 19 9 10 1015.4 1015.0 0.0
08/12:30am 29.0 24.7 5.1 22 12.4 SSE 17 20 9 11 1015.4 1015.0 0.0
08/12:00am 30.1 25.3 4.7 20 13.2 SSE 19 24 10 13 1015.4 1015.0 0.0
 
Date/Time
CDT
Temp
°C
App
Temp
°C
Dew
Point
Rel
Hum
%
Delta-T
°C
Wind Press
QNH
hPa
Press
MSL
hPa
Rain
since 9 am
mm
Dir
 
Spd
km/h
Gust
km/h
Spd
kts
Gust
kts
07/11:30pm 29.3 25.7 6.7 24 12.1 SE 15 19 8 10 1015.6 1015.2 0.0
07/11:00pm 30.6 26.8 5.8 21 13.1 SE 15 19 8 10 1015.3 1014.9 0.0
07/10:30pm 32.6 27.0 5.2 18 14.5 SSE 24 32 13 17 1014.8 1014.4 0.0
07/10:00pm 32.4 28.1 5.1 18 14.4 SSE 17 22 9 12 1014.3 1013.9 0.0
07/09:30pm 32.4 28.4 5.1 18 14.4 S 15 20 8 11 1013.8 1013.4 0.0
07/09:00pm 32.1 28.8 4.8 18 14.4 SE 11 13 6 7 1013.3 1012.9 0.0
07/08:30pm 33.9 30.1 3.7 15 15.8 SE 13 15 7 8 1012.9 1012.5 0.0
07/08:00pm 35.9 31.0 2.1 12 17.4 SSE 17 22 9 12 1012.5 1012.1 0.0
07/07:30pm 37.3 30.8 0.6 10 18.6 SSE 24 32 13 17 1012.0 1011.6 0.0
07/07:00pm 37.7 33.9 5.6 14 17.6 SE 15 20 8 11 1011.8 1011.4 0.0
07/06:30pm 37.9 34.9 7.7 16 17.1 E 13 20 7 11 1011.5 1011.1 0.0
07/06:00pm 38.2 35.1 8.9 17 16.9 ESE 15 24 8 13 1011.5 1011.1 0.0
07/05:30pm 36.8 33.7 10.2 20 15.6 SE 17 26 9 14 1011.6 1011.2 0.0
07/05:00pm 37.2 34.5 10.5 20 15.7 SW 15 24 8 13 1011.8 1011.4 0.0
07/04:30pm 36.5 32.9 10.6 21 15.2 SE 20 37 11 20 1012.2 1011.8 0.0
07/04:00pm 38.0 36.5 11.9 21 15.7 S 11 30 6 16 1012.4 1012.0 0.0
07/03:30pm 36.1 33.6 11.0 22 14.8 SE 15 26 8 14 1012.8 1012.4 0.0
07/03:00pm 35.6 33.7 10.6 22 14.7 SSE 11 28 6 15 1013.0 1012.6 0.0
07/02:30pm 36.3 33.8 11.2 22 14.9 S 15 24 8 13 1013.5 1013.1 0.0
07/02:00pm 37.2 33.6 11.9 22 15.2 SE 22 35 12 19 1013.7 1013.3 0.0
07/01:30pm 35.8 33.6 12.1 24 14.2 SSE 15 32 8 17 1014.1 1013.7 0.0
07/01:00pm 34.6 33.0 14.0 29 12.6 E 15 26 8 14 1014.5 1014.1 0.0
07/12:30pm 33.5 32.8 15.5 34 11.2 ESE 13 22 7 12 1014.8 1014.4 0.0
07/12:00pm 33.5 34.3 16.4 36 10.8 NE 7 20 4 11 1014.9 1014.5 0.0
07/11:30am 32.6 33.5 16.0 36 10.4 ENE 6 13 3 7 1015.1 1014.7 0.0
07/11:00am 31.6 32.5 16.0 39 9.8 ENE 6 15 3 8 1015.3 1014.9 0.0
07/10:30am 30.6 31.5 16.6 43 8.8 NE 7 15 4 8 1015.3 1014.9 0.0
07/10:00am 29.2 29.9 17.1 48 7.6 NE 9 17 5 9 1015.3 1014.9 0.0
07/09:30am 29.0 29.4 17.2 49 7.4 ENE 11 17 6 9 1015.2 1014.8 0.0
07/09:00am 28.1 29.0 17.6 53 6.6 E 9 15 5 8 1015.1 1014.7 0.0
07/08:30am 27.3 28.7 17.8 56 6.0 E 7 11 4 6 1014.9 1014.5 0.0
07/08:00am 25.4 26.5 17.1 60 5.2 SE 7 9 4 5 1014.6 1014.2 0.0
07/07:30am 23.7 24.2 16.5 64 4.4 SE 9 9 5 5 1014.3 1013.9 0.0
07/07:00am 22.4 22.7 16.0 67 3.9 ESE 9 11 5 6 1014.0 1013.6 0.0
07/06:30am 22.6 22.8 15.7 65 4.2 SE 9 11 5 6 1013.7 1013.3 0.0
07/06:00am 23.6 23.3 16.4 64 4.4 ENE 13 15 7 8 1013.2 1012.8 0.0
07/05:30am 23.0 21.8 12.9 53 5.8 ENE 11 13 6 7 1012.7 1012.3 0.0
07/05:00am 24.0 22.5 12.0 47 6.8 E 11 13 6 7 1012.4 1012.0 0.0
07/04:30am 23.7 21.6 8.2 37 8.2 ENE 9 13 5 7 1011.8 1011.4 0.0
07/04:21am 24.7 22.8 9.0 37 8.5 E 9 13 5 7 1011.6 1011.2 0.0
07/04:20am 34.7 31.0 2.3 13 16.6 E 11 13 6 7 1008.7 1008.4 0.0
07/04:00am 23.9 21.4 8.3 37 8.3 E 11 13 6 7 1011.5 1011.1 0.0
07/03:30am 24.1 21.2 8.1 36 8.5 SSE 13 15 7 8 1011.1 1010.7 0.0
07/03:00am 24.6 22.1 8.1 35 8.8 SSE 11 13 6 7 1011.1 1010.7 0.0
07/02:30am 25.4 23.8 8.0 33 9.3 SSE 6 9 3 5 1011.1 1010.7 0.0
07/02:00am 25.4 22.5 8.0 33 9.3 SSE 13 17 7 9 1011.1 1010.7 0.0
07/01:30am 26.0 22.3 8.0 32 9.7 SSE 17 19 9 10 1011.0 1010.6 0.0
07/01:00am 25.2 23.1 8.2 34 9.1 SSE 9 11 5 6 1011.1 1010.7 0.0
07/12:30am 25.9 23.2 7.5 31 9.8 SE 11 13 6 7 1011.1 1010.7 0.0
07/12:00am 26.6 24.0 7.6 30 10.2 SE 11 13 6 7 1011.2 1010.8 0.0
 
Date/Time
CDT
Temp
°C
App
Temp
°C
Dew
Point
Rel
Hum
%
Delta-T
°C
Wind Press
QNH
hPa
Press
MSL
hPa
Rain
since 9 am
mm
Dir
 
Spd
km/h
Gust
km/h
Spd
kts
Gust
kts
06/11:30pm 27.5 24.7 6.8 27 11.0 SE 11 13 6 7 1011.2 1010.8 0.0
06/11:00pm 27.4 24.4 6.2 26 11.1 SSE 11 13 6 7 1011.2 1010.8 0.0
06/10:30pm 30.1 26.2 5.4 21 13.0 SE 15 17 8 9 1010.8 1010.4 0.0
06/10:00pm 30.0 27.2 5.3 21 12.9 S 9 11 5 6 1010.5 1010.1 0.0
06/09:30pm 32.3 28.9 4.2 17 14.7 SSE 11 13 6 7 1010.0 1009.6 0.0
06/09:00pm 32.6 29.3 4.4 17 14.8 S 11 13 6 7 1009.6 1009.2 0.0
06/08:30pm 33.9 30.6 2.7 14 16.0 S 9 15 5 8 1009.1 1008.8 0.0
06/08:00pm 35.6 31.4 1.8 12 17.3 SE 13 17 7 9 1008.6 1008.3 0.0
06/07:30pm 36.8 31.8 1.5 11 18.1 SW 17 24 9 13 1008.2 1007.9 0.0
06/07:00pm 37.2 31.1 0.5 10 18.6 S 22 32 12 17 1007.7 1007.4 0.0
06/06:30pm 37.5 33.2 0.7 10 18.7 SSE 13 24 7 13 1007.7 1007.4 0.0
06/06:00pm 37.2 32.2 -0.9 9 18.9 S 15 30 8 16 1007.6 1007.3 0.0
06/05:30pm 37.5 31.8 0.7 10 18.7 SSE 20 32 11 17 1007.6 1007.3 0.0
06/05:00pm 37.3 33.3 0.6 10 18.6 S 11 19 6 10 1007.7 1007.4 0.0
06/04:30pm 37.6 33.6 0.8 10 18.8 S 11 26 6 14 1007.9 1007.6 0.0
06/04:00pm 37.7 32.2 0.9 10 18.8 SSE 19 28 10 15 1008.1 1007.8 0.0
06/03:30pm 37.0 31.3 2.9 12 17.9 SSE 22 30 12 16 1008.5 1008.2 0.0
06/03:00pm 37.6 31.6 3.4 12 18.2 S 24 43 13 23 1008.7 1008.4 0.0
06/02:30pm 36.3 32.3 6.5 16 16.5 E 17 26 9 14 1009.2 1008.9 0.0
06/02:00pm 37.4 33.0 7.3 16 16.9 SE 20 32 11 17 1009.6 1009.2 0.0
06/01:30pm 36.1 31.5 6.3 16 16.4 SE 20 33 11 18 1010.0 1009.6 0.0
06/01:00pm 35.7 31.2 8.5 19 15.4 E 22 35 12 19 1010.3 1009.9 0.0
06/12:30pm 35.4 32.2 8.3 19 15.3 ESE 15 26 8 14 1010.5 1010.1 0.0
06/12:00pm 35.2 31.5 8.1 19 15.3 SE 17 28 9 15 1010.9 1010.5 0.0
06/11:30am 34.3 29.3 6.6 18 15.2 SE 22 32 12 17 1011.1 1010.7 0.0
06/11:00am 33.7 28.6 6.1 18 15.0 SE 22 30 12 16 1011.2 1010.8 0.0
06/10:30am 32.5 26.4 6.7 20 14.0 SE 28 35 15 19 1011.2 1010.8 0.0
06/10:00am 30.9 24.9 5.3 20 13.5 SE 26 37 14 20 1011.3 1010.9 0.0
06/09:30am 30.2 24.2 5.5 21 13.0 SE 26 35 14 19 1011.2 1010.8 0.0
06/09:00am 28.7 22.9 6.1 24 11.9 SSE 26 33 14 18 1011.2 1010.8 0.0
06/08:30am 27.4 22.5 6.8 27 10.9 SSE 22 28 12 15 1010.9 1010.5 0.0
06/08:00am 25.6 21.2 7.2 31 9.7 S 20 24 11 13 1010.6 1010.2 0.0
06/07:30am 23.7 19.8 7.3 35 8.6 SSE 17 20 9 11 1010.5 1010.1 0.0
06/07:00am 23.3 18.1 7.4 36 8.3 S 24 28 13 15 1010.1 1009.7 0.0
06/06:30am 23.2 18.5 7.7 37 8.2 S 22 26 12 14 1009.8 1009.4 0.0
06/06:00am 23.6 18.9 7.7 36 8.4 SSE 22 26 12 14 1009.5 1009.1 0.0
06/05:30am 23.8 19.5 7.8 36 8.5 S 20 26 11 14 1009.0 1008.7 0.0

Other Formats:

Comma delimited format used in spreadsheet applications
http://www.bom.gov.au/fwo/IDS60801/IDS60801.95480.axf

JavaScript Object Notation format (JSON) in row-major order
http://www.bom.gov.au/fwo/IDS60801/IDS60801.95480.json